sensor_id;sensor_type;location;lat;lon;timestamp;P1;durP1;ratioP1;P2;durP2;ratioP2
34924;SDS011;21130;51.728;8.748;2023-03-11T00:00:31;7.25;;;5.53;;
34924;SDS011;21130;51.728;8.748;2023-03-11T00:03:01;7.43;;;5.85;;
34924;SDS011;21130;51.728;8.748;2023-03-11T00:05:29;6.88;;;5.25;;
34924;SDS011;21130;51.728;8.748;2023-03-11T00:07:58;5.95;;;5.35;;
34924;SDS011;21130;51.728;8.748;2023-03-11T00:10:26;6.95;;;6.25;;
34924;SDS011;21130;51.728;8.748;2023-03-11T00:12:54;6.35;;;5.63;;
34924;SDS011;21130;51.728;8.748;2023-03-11T00:15:20;5.43;;;4.93;;
34924;SDS011;21130;51.728;8.748;2023-03-11T00:17:47;6.25;;;5.45;;
34924;SDS011;21130;51.728;8.748;2023-03-11T00:20:16;6.43;;;4.78;;
34924;SDS011;21130;51.728;8.748;2023-03-11T00:22:44;6.47;;;4.97;;
34924;SDS011;21130;51.728;8.748;2023-03-11T00:25:12;5.15;;;4.65;;
34924;SDS011;21130;51.728;8.748;2023-03-11T00:27:38;5.03;;;4.53;;
34924;SDS011;21130;51.728;8.748;2023-03-11T00:30:05;5.53;;;4.85;;
34924;SDS011;21130;51.728;8.748;2023-03-11T00:32:33;5.45;;;4.95;;
34924;SDS011;21130;51.728;8.748;2023-03-11T00:34:59;5.20;;;4.65;;
34924;SDS011;21130;51.728;8.748;2023-03-11T00:37:27;5.32;;;4.82;;
34924;SDS011;21130;51.728;8.748;2023-03-11T00:39:53;5.82;;;5.22;;
34924;SDS011;21130;51.728;8.748;2023-03-11T00:42:20;5.82;;;4.80;;
34924;SDS011;21130;51.728;8.748;2023-03-11T00:44:46;6.40;;;5.32;;
34924;SDS011;21130;51.728;8.748;2023-03-11T00:47:13;6.32;;;5.00;;
34924;SDS011;21130;51.728;8.748;2023-03-11T00:49:39;6.07;;;5.35;;
34924;SDS011;21130;51.728;8.748;2023-03-11T00:52:06;5.47;;;4.80;;
34924;SDS011;21130;51.728;8.748;2023-03-11T00:54:33;5.32;;;4.82;;
34924;SDS011;21130;51.728;8.748;2023-03-11T00:57:00;7.15;;;5.25;;
34924;SDS011;21130;51.728;8.748;2023-03-11T00:59:26;7.40;;;5.38;;
34924;SDS011;21130;51.728;8.748;2023-03-11T01:01:53;5.63;;;5.05;;
34924;SDS011;21130;51.728;8.748;2023-03-11T01:04:19;6.60;;;5.30;;
34924;SDS011;21130;51.728;8.748;2023-03-11T01:06:46;7.75;;;5.20;;
34924;SDS011;21130;51.728;8.748;2023-03-11T01:09:12;6.32;;;5.57;;
34924;SDS011;21130;51.728;8.748;2023-03-11T01:11:40;7.18;;;5.82;;
34924;SDS011;21130;51.728;8.748;2023-03-11T01:14:07;7.78;;;5.60;;
34924;SDS011;21130;51.728;8.748;2023-03-11T01:16:34;5.95;;;5.25;;
34924;SDS011;21130;51.728;8.748;2023-03-11T01:19:01;8.02;;;4.88;;
34924;SDS011;21130;51.728;8.748;2023-03-11T01:21:28;6.80;;;5.25;;
34924;SDS011;21130;51.728;8.748;2023-03-11T01:23:54;7.82;;;5.90;;
34924;SDS011;21130;51.728;8.748;2023-03-11T01:26:20;7.63;;;5.78;;
34924;SDS011;21130;51.728;8.748;2023-03-11T01:28:48;7.55;;;5.93;;
34924;SDS011;21130;51.728;8.748;2023-03-11T01:31:15;7.40;;;5.40;;
34924;SDS011;21130;51.728;8.748;2023-03-11T01:33:41;6.25;;;5.35;;
34924;SDS011;21130;51.728;8.748;2023-03-11T01:36:08;7.60;;;5.38;;
34924;SDS011;21130;51.728;8.748;2023-03-11T01:38:34;10.43;;;5.75;;
34924;SDS011;21130;51.728;8.748;2023-03-11T01:41:00;6.22;;;5.43;;
34924;SDS011;21130;51.728;8.748;2023-03-11T01:43:38;6.22;;;5.63;;
34924;SDS011;21130;51.728;8.748;2023-03-11T01:46:14;10.13;;;5.80;;
34924;SDS011;21130;51.728;8.748;2023-03-11T01:48:44;7.97;;;4.88;;
34924;SDS011;21130;51.728;8.748;2023-03-11T01:51:11;6.43;;;5.10;;
34924;SDS011;21130;51.728;8.748;2023-03-11T01:53:39;7.13;;;5.30;;
34924;SDS011;21130;51.728;8.748;2023-03-11T01:56:06;9.82;;;5.35;;
34924;SDS011;21130;51.728;8.748;2023-03-11T01:58:33;8.40;;;5.60;;
34924;SDS011;21130;51.728;8.748;2023-03-11T02:01:03;9.32;;;5.32;;
34924;SDS011;21130;51.728;8.748;2023-03-11T02:03:32;6.28;;;4.95;;
34924;SDS011;21130;51.728;8.748;2023-03-11T02:06:02;7.30;;;4.80;;
34924;SDS011;21130;51.728;8.748;2023-03-11T02:08:31;7.45;;;4.97;;
34924;SDS011;21130;51.728;8.748;2023-03-11T02:10:58;5.75;;;4.90;;
34924;SDS011;21130;51.728;8.748;2023-03-11T02:13:28;6.18;;;5.25;;
34924;SDS011;21130;51.728;8.748;2023-03-11T02:15:54;8.93;;;4.90;;
34924;SDS011;21130;51.728;8.748;2023-03-11T02:18:21;8.57;;;4.85;;
34924;SDS011;21130;51.728;8.748;2023-03-11T02:20:50;8.05;;;5.28;;
34924;SDS011;21130;51.728;8.748;2023-03-11T02:23:23;6.60;;;5.05;;
34924;SDS011;21130;51.728;8.748;2023-03-11T02:25:55;7.35;;;4.85;;
34924;SDS011;21130;51.728;8.748;2023-03-11T02:28:27;8.70;;;5.60;;
34924;SDS011;21130;51.728;8.748;2023-03-11T02:30:56;6.15;;;4.93;;
34924;SDS011;21130;51.728;8.748;2023-03-11T02:33:23;8.57;;;5.00;;
34924;SDS011;21130;51.728;8.748;2023-03-11T02:35:54;8.50;;;5.25;;
34924;SDS011;21130;51.728;8.748;2023-03-11T02:38:21;9.50;;;5.25;;
34924;SDS011;21130;51.728;8.748;2023-03-11T02:40:49;9.82;;;5.38;;
34924;SDS011;21130;51.728;8.748;2023-03-11T02:43:21;7.85;;;5.65;;
34924;SDS011;21130;51.728;8.748;2023-03-11T02:45:52;7.65;;;5.32;;
34924;SDS011;21130;51.728;8.748;2023-03-11T02:48:21;7.88;;;5.45;;
34924;SDS011;21130;51.728;8.748;2023-03-11T02:50:48;8.77;;;5.47;;
34924;SDS011;21130;51.728;8.748;2023-03-11T02:53:15;9.18;;;5.70;;
34924;SDS011;21130;51.728;8.748;2023-03-11T02:55:42;8.48;;;5.15;;
34924;SDS011;21130;51.728;8.748;2023-03-11T02:58:08;6.10;;;5.10;;
34924;SDS011;21130;51.728;8.748;2023-03-11T03:00:35;8.27;;;5.60;;
34924;SDS011;21130;51.728;8.748;2023-03-11T03:03:03;7.97;;;5.05;;
34924;SDS011;21130;51.728;8.748;2023-03-11T03:05:29;7.80;;;4.97;;
34924;SDS011;21130;51.728;8.748;2023-03-11T03:07:56;8.13;;;5.18;;
34924;SDS011;21130;51.728;8.748;2023-03-11T03:10:22;8.25;;;5.15;;
34924;SDS011;21130;51.728;8.748;2023-03-11T03:12:48;8.75;;;5.60;;
34924;SDS011;21130;51.728;8.748;2023-03-11T03:15:15;6.72;;;5.28;;
34924;SDS011;21130;51.728;8.748;2023-03-11T03:17:42;9.57;;;5.28;;
34924;SDS011;21130;51.728;8.748;2023-03-11T03:20:12;6.93;;;5.30;;
34924;SDS011;21130;51.728;8.748;2023-03-11T03:22:39;10.85;;;5.53;;
34924;SDS011;21130;51.728;8.748;2023-03-11T03:25:07;7.35;;;4.85;;
34924;SDS011;21130;51.728;8.748;2023-03-11T03:27:34;5.88;;;4.50;;
34924;SDS011;21130;51.728;8.748;2023-03-11T03:30:01;5.88;;;4.70;;
34924;SDS011;21130;51.728;8.748;2023-03-11T03:32:29;8.55;;;4.97;;
34924;SDS011;21130;51.728;8.748;2023-03-11T03:34:55;7.70;;;4.95;;
34924;SDS011;21130;51.728;8.748;2023-03-11T03:37:25;9.13;;;5.93;;
34924;SDS011;21130;51.728;8.748;2023-03-11T03:39:52;5.85;;;5.10;;
34924;SDS011;21130;51.728;8.748;2023-03-11T03:42:19;9.23;;;5.50;;
34924;SDS011;21130;51.728;8.748;2023-03-11T03:44:46;7.10;;;5.00;;
34924;SDS011;21130;51.728;8.748;2023-03-11T03:47:13;6.95;;;5.10;;
34924;SDS011;21130;51.728;8.748;2023-03-11T03:49:39;7.68;;;5.10;;
34924;SDS011;21130;51.728;8.748;2023-03-11T03:52:05;5.93;;;5.13;;
34924;SDS011;21130;51.728;8.748;2023-03-11T03:54:34;7.85;;;4.90;;
34924;SDS011;21130;51.728;8.748;2023-03-11T03:57:00;5.15;;;4.63;;
34924;SDS011;21130;51.728;8.748;2023-03-11T03:59:27;7.38;;;5.15;;
34924;SDS011;21130;51.728;8.748;2023-03-11T04:01:53;6.78;;;4.32;;
34924;SDS011;21130;51.728;8.748;2023-03-11T04:04:22;6.75;;;4.93;;
34924;SDS011;21130;51.728;8.748;2023-03-11T04:06:48;7.60;;;5.03;;
34924;SDS011;21130;51.728;8.748;2023-03-11T04:09:15;7.07;;;5.25;;
34924;SDS011;21130;51.728;8.748;2023-03-11T04:11:42;11.25;;;5.45;;
34924;SDS011;21130;51.728;8.748;2023-03-11T04:14:09;6.30;;;5.10;;
34924;SDS011;21130;51.728;8.748;2023-03-11T04:16:36;8.23;;;4.90;;
34924;SDS011;21130;51.728;8.748;2023-03-11T04:19:02;11.43;;;5.20;;
34924;SDS011;21130;51.728;8.748;2023-03-11T04:21:29;6.93;;;5.05;;
34924;SDS011;21130;51.728;8.748;2023-03-11T04:23:56;8.35;;;4.65;;
34924;SDS011;21130;51.728;8.748;2023-03-11T04:26:22;6.53;;;5.03;;
34924;SDS011;21130;51.728;8.748;2023-03-11T04:28:50;4.90;;;4.40;;
34924;SDS011;21130;51.728;8.748;2023-03-11T04:31:17;7.32;;;4.80;;
34924;SDS011;21130;51.728;8.748;2023-03-11T04:33:43;9.68;;;4.53;;
34924;SDS011;21130;51.728;8.748;2023-03-11T04:36:10;11.57;;;5.13;;
34924;SDS011;21130;51.728;8.748;2023-03-11T04:38:37;8.30;;;4.95;;
34924;SDS011;21130;51.728;8.748;2023-03-11T04:41:05;8.48;;;5.28;;
34924;SDS011;21130;51.728;8.748;2023-03-11T04:43:32;11.57;;;5.18;;
34924;SDS011;21130;51.728;8.748;2023-03-11T04:46:00;7.45;;;4.88;;
34924;SDS011;21130;51.728;8.748;2023-03-11T04:48:28;8.63;;;5.07;;
34924;SDS011;21130;51.728;8.748;2023-03-11T04:50:54;12.68;;;5.38;;
34924;SDS011;21130;51.728;8.748;2023-03-11T04:53:21;6.97;;;4.70;;
34924;SDS011;21130;51.728;8.748;2023-03-11T04:55:47;9.82;;;4.90;;
34924;SDS011;21130;51.728;8.748;2023-03-11T04:58:14;11.65;;;5.13;;
34924;SDS011;21130;51.728;8.748;2023-03-11T05:00:41;8.75;;;4.95;;
34924;SDS011;21130;51.728;8.748;2023-03-11T05:03:08;7.57;;;4.43;;
34924;SDS011;21130;51.728;8.748;2023-03-11T05:05:35;7.78;;;4.30;;
34924;SDS011;21130;51.728;8.748;2023-03-11T05:08:01;6.03;;;4.43;;
34924;SDS011;21130;51.728;8.748;2023-03-11T05:10:28;11.15;;;4.75;;
34924;SDS011;21130;51.728;8.748;2023-03-11T05:12:54;8.88;;;4.25;;
34924;SDS011;21130;51.728;8.748;2023-03-11T05:15:21;10.10;;;4.53;;
34924;SDS011;21130;51.728;8.748;2023-03-11T05:17:48;6.20;;;4.43;;
34924;SDS011;21130;51.728;8.748;2023-03-11T05:20:16;7.20;;;4.10;;
34924;SDS011;21130;51.728;8.748;2023-03-11T05:22:43;10.25;;;4.13;;
34924;SDS011;21130;51.728;8.748;2023-03-11T05:25:10;8.05;;;3.78;;
34924;SDS011;21130;51.728;8.748;2023-03-11T05:27:36;5.82;;;3.60;;
34924;SDS011;21130;51.728;8.748;2023-03-11T05:30:03;6.30;;;3.95;;
34924;SDS011;21130;51.728;8.748;2023-03-11T05:32:30;7.88;;;3.70;;
34924;SDS011;21130;51.728;8.748;2023-03-11T05:34:56;7.25;;;3.65;;
34924;SDS011;21130;51.728;8.748;2023-03-11T05:37:24;6.13;;;3.28;;
34924;SDS011;21130;51.728;8.748;2023-03-11T05:39:51;9.48;;;3.65;;
34924;SDS011;21130;51.728;8.748;2023-03-11T05:42:17;5.53;;;3.25;;
34924;SDS011;21130;51.728;8.748;2023-03-11T05:44:44;6.25;;;3.30;;
34924;SDS011;21130;51.728;8.748;2023-03-11T05:47:10;7.05;;;3.38;;
34924;SDS011;21130;51.728;8.748;2023-03-11T05:49:37;6.03;;;4.00;;
34924;SDS011;21130;51.728;8.748;2023-03-11T05:52:03;5.78;;;3.65;;
34924;SDS011;21130;51.728;8.748;2023-03-11T05:54:33;8.25;;;3.80;;
34924;SDS011;21130;51.728;8.748;2023-03-11T05:56:59;14.38;;;4.38;;
34924;SDS011;21130;51.728;8.748;2023-03-11T05:59:26;5.35;;;3.55;;
34924;SDS011;21130;51.728;8.748;2023-03-11T06:01:52;6.88;;;4.38;;
34924;SDS011;21130;51.728;8.748;2023-03-11T06:04:19;8.93;;;4.15;;
34924;SDS011;21130;51.728;8.748;2023-03-11T06:06:45;7.15;;;4.22;;
34924;SDS011;21130;51.728;8.748;2023-03-11T06:09:11;10.02;;;3.88;;
34924;SDS011;21130;51.728;8.748;2023-03-11T06:11:40;8.45;;;4.10;;
34924;SDS011;21130;51.728;8.748;2023-03-11T06:14:09;8.27;;;3.67;;
34924;SDS011;21130;51.728;8.748;2023-03-11T06:16:36;5.68;;;3.90;;
34924;SDS011;21130;51.728;8.748;2023-03-11T06:19:04;6.63;;;4.15;;
34924;SDS011;21130;51.728;8.748;2023-03-11T06:21:30;6.55;;;3.22;;
34924;SDS011;21130;51.728;8.748;2023-03-11T06:23:57;8.02;;;3.40;;
34924;SDS011;21130;51.728;8.748;2023-03-11T06:26:23;6.88;;;3.53;;
34924;SDS011;21130;51.728;8.748;2023-03-11T06:28:51;7.70;;;3.92;;
34924;SDS011;21130;51.728;8.748;2023-03-11T06:31:19;4.40;;;3.85;;
34924;SDS011;21130;51.728;8.748;2023-03-11T06:33:48;5.22;;;3.03;;
34924;SDS011;21130;51.728;8.748;2023-03-11T06:36:15;6.43;;;3.10;;
34924;SDS011;21130;51.728;8.748;2023-03-11T06:38:45;4.20;;;3.08;;
34924;SDS011;21130;51.728;8.748;2023-03-11T06:41:14;5.70;;;3.15;;
34924;SDS011;21130;51.728;8.748;2023-03-11T06:43:41;6.85;;;3.35;;
34924;SDS011;21130;51.728;8.748;2023-03-11T06:46:09;6.22;;;2.80;;
34924;SDS011;21130;51.728;8.748;2023-03-11T06:48:38;7.03;;;3.40;;
34924;SDS011;21130;51.728;8.748;2023-03-11T06:51:04;6.80;;;2.92;;
34924;SDS011;21130;51.728;8.748;2023-03-11T06:53:31;11.30;;;3.33;;
34924;SDS011;21130;51.728;8.748;2023-03-11T06:55:59;8.13;;;3.20;;
34924;SDS011;21130;51.728;8.748;2023-03-11T06:58:27;6.63;;;2.90;;
34924;SDS011;21130;51.728;8.748;2023-03-11T07:00:58;5.25;;;3.22;;
34924;SDS011;21130;51.728;8.748;2023-03-11T07:03:27;5.35;;;3.08;;
34924;SDS011;21130;51.728;8.748;2023-03-11T07:05:53;6.78;;;3.22;;
34924;SDS011;21130;51.728;8.748;2023-03-11T07:08:20;4.47;;;2.63;;
34924;SDS011;21130;51.728;8.748;2023-03-11T07:10:46;5.22;;;3.10;;
34924;SDS011;21130;51.728;8.748;2023-03-11T07:13:25;7.60;;;3.22;;
34924;SDS011;21130;51.728;8.748;2023-03-11T07:15:58;10.77;;;3.33;;
34924;SDS011;21130;51.728;8.748;2023-03-11T07:18:26;4.47;;;3.00;;
34924;SDS011;21130;51.728;8.748;2023-03-11T07:20:53;11.52;;;4.00;;
34924;SDS011;21130;51.728;8.748;2023-03-11T07:23:19;4.72;;;3.28;;
34924;SDS011;21130;51.728;8.748;2023-03-11T07:25:46;5.13;;;2.80;;
34924;SDS011;21130;51.728;8.748;2023-03-11T07:28:12;5.38;;;2.75;;
34924;SDS011;21130;51.728;8.748;2023-03-11T07:30:39;4.82;;;3.20;;
34924;SDS011;21130;51.728;8.748;2023-03-11T07:33:08;7.43;;;3.55;;
34924;SDS011;21130;51.728;8.748;2023-03-11T07:35:36;6.05;;;3.20;;
34924;SDS011;21130;51.728;8.748;2023-03-11T07:38:02;8.35;;;2.95;;
34924;SDS011;21130;51.728;8.748;2023-03-11T07:40:28;11.55;;;3.42;;
34924;SDS011;21130;51.728;8.748;2023-03-11T07:42:55;7.65;;;3.20;;
34924;SDS011;21130;51.728;8.748;2023-03-11T07:45:21;7.43;;;2.53;;
34924;SDS011;21130;51.728;8.748;2023-03-11T07:47:48;5.13;;;2.83;;
34924;SDS011;21130;51.728;8.748;2023-03-11T07:50:14;4.43;;;2.33;;
34924;SDS011;21130;51.728;8.748;2023-03-11T07:52:43;3.53;;;2.63;;
34924;SDS011;21130;51.728;8.748;2023-03-11T07:55:09;5.22;;;2.58;;
34924;SDS011;21130;51.728;8.748;2023-03-11T07:57:36;5.00;;;2.40;;
34924;SDS011;21130;51.728;8.748;2023-03-11T08:00:03;4.65;;;2.50;;
34924;SDS011;21130;51.728;8.748;2023-03-11T08:02:30;6.28;;;2.45;;
34924;SDS011;21130;51.728;8.748;2023-03-11T08:04:56;5.38;;;2.65;;
34924;SDS011;21130;51.728;8.748;2023-03-11T08:07:22;7.15;;;2.30;;
34924;SDS011;21130;51.728;8.748;2023-03-11T08:09:50;6.50;;;2.60;;
34924;SDS011;21130;51.728;8.748;2023-03-11T08:12:16;5.32;;;2.35;;
34924;SDS011;21130;51.728;8.748;2023-03-11T08:14:43;4.10;;;2.22;;
34924;SDS011;21130;51.728;8.748;2023-03-11T08:17:09;3.85;;;2.53;;
34924;SDS011;21130;51.728;8.748;2023-03-11T08:25:49;6.15;;;2.30;;
34924;SDS011;21130;51.728;8.748;2023-03-11T08:28:15;6.38;;;2.10;;
34924;SDS011;21130;51.728;8.748;2023-03-11T08:30:42;5.50;;;2.03;;
34924;SDS011;21130;51.728;8.748;2023-03-11T08:33:09;5.43;;;2.33;;
34924;SDS011;21130;51.728;8.748;2023-03-11T08:35:35;4.97;;;1.95;;
34924;SDS011;21130;51.728;8.748;2023-03-11T08:38:01;4.47;;;1.98;;
34924;SDS011;21130;51.728;8.748;2023-03-11T08:40:28;3.15;;;2.17;;
34924;SDS011;21130;51.728;8.748;2023-03-11T08:42:56;7.80;;;1.92;;
34924;SDS011;21130;51.728;8.748;2023-03-11T08:45:22;5.95;;;2.10;;
34924;SDS011;21130;51.728;8.748;2023-03-11T08:47:49;6.65;;;1.98;;
34924;SDS011;21130;51.728;8.748;2023-03-11T08:50:16;4.40;;;1.73;;
34924;SDS011;21130;51.728;8.748;2023-03-11T08:52:43;5.35;;;2.15;;
34924;SDS011;21130;51.728;8.748;2023-03-11T08:55:11;6.30;;;1.77;;
34924;SDS011;21130;51.728;8.748;2023-03-11T08:57:39;4.28;;;1.95;;
34924;SDS011;21130;51.728;8.748;2023-03-11T09:00:08;6.72;;;1.80;;
34924;SDS011;21130;51.728;8.748;2023-03-11T09:02:37;3.75;;;1.95;;
34924;SDS011;21130;51.728;8.748;2023-03-11T09:05:03;5.95;;;1.80;;
34924;SDS011;21130;51.728;8.748;2023-03-11T09:07:30;5.05;;;1.80;;
34924;SDS011;21130;51.728;8.748;2023-03-11T09:09:57;3.78;;;1.52;;
34924;SDS011;21130;51.728;8.748;2023-03-11T09:12:23;4.88;;;1.70;;
34924;SDS011;21130;51.728;8.748;2023-03-11T09:14:51;3.38;;;1.95;;
34924;SDS011;21130;51.728;8.748;2023-03-11T09:17:19;6.68;;;2.53;;
34924;SDS011;21130;51.728;8.748;2023-03-11T09:19:46;6.13;;;1.80;;
34924;SDS011;21130;51.728;8.748;2023-03-11T09:22:13;6.20;;;2.35;;
34924;SDS011;21130;51.728;8.748;2023-03-11T09:24:39;5.03;;;1.95;;
34924;SDS011;21130;51.728;8.748;2023-03-11T09:27:06;6.18;;;1.83;;
34924;SDS011;21130;51.728;8.748;2023-03-11T09:29:33;4.45;;;1.80;;
34924;SDS011;21130;51.728;8.748;2023-03-11T09:31:59;4.25;;;1.60;;
34924;SDS011;21130;51.728;8.748;2023-03-11T09:34:27;4.43;;;1.77;;
34924;SDS011;21130;51.728;8.748;2023-03-11T09:36:53;6.18;;;1.80;;
34924;SDS011;21130;51.728;8.748;2023-03-11T09:39:20;6.85;;;1.90;;
34924;SDS011;21130;51.728;8.748;2023-03-11T09:41:48;3.15;;;1.65;;
34924;SDS011;21130;51.728;8.748;2023-03-11T09:44:19;2.78;;;1.45;;
34924;SDS011;21130;51.728;8.748;2023-03-11T09:49:47;6.25;;;1.52;;
34924;SDS011;21130;51.728;8.748;2023-03-11T09:52:32;3.88;;;1.33;;
34924;SDS011;21130;51.728;8.748;2023-03-11T09:55:24;3.58;;;1.50;;
34924;SDS011;21130;51.728;8.748;2023-03-11T09:57:57;3.75;;;1.55;;
34924;SDS011;21130;51.728;8.748;2023-03-11T10:00:28;4.28;;;1.83;;
34924;SDS011;21130;51.728;8.748;2023-03-11T10:02:54;3.90;;;1.50;;
34924;SDS011;21130;51.728;8.748;2023-03-11T10:05:23;4.75;;;1.45;;
34924;SDS011;21130;51.728;8.748;2023-03-11T10:07:53;7.65;;;1.77;;
34924;SDS011;21130;51.728;8.748;2023-03-11T10:10:25;4.88;;;1.20;;
34924;SDS011;21130;51.728;8.748;2023-03-11T10:12:58;2.33;;;1.10;;
34924;SDS011;21130;51.728;8.748;2023-03-11T10:15:37;3.99;;;1.37;;
34924;SDS011;21130;51.728;8.748;2023-03-11T10:18:16;5.40;;;1.52;;
34924;SDS011;21130;51.728;8.748;2023-03-11T10:20:58;6.40;;;1.42;;
34924;SDS011;21130;51.728;8.748;2023-03-11T10:23:29;3.97;;;1.90;;
34924;SDS011;21130;51.728;8.748;2023-03-11T10:26:04;6.90;;;1.85;;
34924;SDS011;21130;51.728;8.748;2023-03-11T10:28:38;4.90;;;1.10;;
34924;SDS011;21130;51.728;8.748;2023-03-11T10:31:12;5.30;;;1.20;;
34924;SDS011;21130;51.728;8.748;2023-03-11T10:33:46;5.22;;;1.23;;
34924;SDS011;21130;51.728;8.748;2023-03-11T10:36:20;3.90;;;1.27;;
34924;SDS011;21130;51.728;8.748;2023-03-11T10:38:51;2.70;;;0.93;;
34924;SDS011;21130;51.728;8.748;2023-03-11T10:41:19;3.80;;;1.50;;
34924;SDS011;21130;51.728;8.748;2023-03-11T10:43:51;5.25;;;1.10;;
34924;SDS011;21130;51.728;8.748;2023-03-11T10:46:21;2.72;;;1.25;;
34924;SDS011;21130;51.728;8.748;2023-03-11T10:48:49;4.80;;;1.50;;
34924;SDS011;21130;51.728;8.748;2023-03-11T10:51:16;3.80;;;1.17;;
34924;SDS011;21130;51.728;8.748;2023-03-11T10:53:48;5.15;;;1.50;;
34924;SDS011;21130;51.728;8.748;2023-03-11T10:56:24;3.22;;;1.65;;
34924;SDS011;21130;51.728;8.748;2023-03-11T10:58:52;2.80;;;1.20;;
34924;SDS011;21130;51.728;8.748;2023-03-11T11:01:20;4.75;;;1.13;;
34924;SDS011;21130;51.728;8.748;2023-03-11T11:03:47;4.93;;;1.98;;
34924;SDS011;21130;51.728;8.748;2023-03-11T11:06:20;2.17;;;1.23;;
34924;SDS011;21130;51.728;8.748;2023-03-11T11:09:02;5.95;;;1.48;;
34924;SDS011;21130;51.728;8.748;2023-03-11T11:11:31;5.15;;;1.25;;
34924;SDS011;21130;51.728;8.748;2023-03-11T11:13:58;4.72;;;1.38;;
34924;SDS011;21130;51.728;8.748;2023-03-11T11:16:25;3.40;;;1.10;;
34924;SDS011;21130;51.728;8.748;2023-03-11T11:18:54;4.30;;;1.40;;
34924;SDS011;21130;51.728;8.748;2023-03-11T11:21:29;5.30;;;1.35;;
34924;SDS011;21130;51.728;8.748;2023-03-11T11:24:02;2.85;;;1.02;;
34924;SDS011;21130;51.728;8.748;2023-03-11T11:26:34;3.00;;;1.10;;
34924;SDS011;21130;51.728;8.748;2023-03-11T11:29:05;2.53;;;1.15;;
34924;SDS011;21130;51.728;8.748;2023-03-11T11:31:37;2.55;;;0.90;;
34924;SDS011;21130;51.728;8.748;2023-03-11T11:34:13;5.70;;;1.30;;
34924;SDS011;21130;51.728;8.748;2023-03-11T11:36:53;5.93;;;1.30;;
34924;SDS011;21130;51.728;8.748;2023-03-11T11:39:21;4.43;;;1.30;;
34924;SDS011;21130;51.728;8.748;2023-03-11T11:41:50;3.25;;;1.33;;
34924;SDS011;21130;51.728;8.748;2023-03-11T11:44:18;3.35;;;1.08;;
34924;SDS011;21130;51.728;8.748;2023-03-11T11:46:48;6.03;;;1.83;;
34924;SDS011;21130;51.728;8.748;2023-03-11T11:49:19;5.85;;;1.40;;
34924;SDS011;21130;51.728;8.748;2023-03-11T11:51:49;3.72;;;1.48;;
34924;SDS011;21130;51.728;8.748;2023-03-11T11:54:22;1.85;;;0.90;;
34924;SDS011;21130;51.728;8.748;2023-03-11T11:56:53;2.20;;;1.10;;
34924;SDS011;21130;51.728;8.748;2023-03-11T11:59:20;4.25;;;1.38;;
34924;SDS011;21130;51.728;8.748;2023-03-11T12:01:50;2.75;;;1.45;;
34924;SDS011;21130;51.728;8.748;2023-03-11T12:04:30;2.65;;;0.98;;
34924;SDS011;21130;51.728;8.748;2023-03-11T12:07:08;4.20;;;1.35;;
34924;SDS011;21130;51.728;8.748;2023-03-11T12:09:46;4.03;;;1.30;;
34924;SDS011;21130;51.728;8.748;2023-03-11T12:12:20;4.20;;;1.02;;
34924;SDS011;21130;51.728;8.748;2023-03-11T12:14:54;4.75;;;1.10;;
34924;SDS011;21130;51.728;8.748;2023-03-11T12:17:25;2.55;;;1.15;;
34924;SDS011;21130;51.728;8.748;2023-03-11T12:19:56;5.55;;;1.30;;
34924;SDS011;21130;51.728;8.748;2023-03-11T12:22:33;2.17;;;1.10;;
34924;SDS011;21130;51.728;8.748;2023-03-11T12:25:22;6.65;;;1.42;;
34924;SDS011;21130;51.728;8.748;2023-03-11T12:27:56;4.63;;;1.20;;
34924;SDS011;21130;51.728;8.748;2023-03-11T12:30:31;5.75;;;1.40;;
34924;SDS011;21130;51.728;8.748;2023-03-11T12:33:01;4.57;;;1.40;;
34924;SDS011;21130;51.728;8.748;2023-03-11T12:35:31;3.65;;;1.30;;
34924;SDS011;21130;51.728;8.748;2023-03-11T12:38:03;4.55;;;1.20;;
34924;SDS011;21130;51.728;8.748;2023-03-11T12:40:46;4.55;;;1.00;;
34924;SDS011;21130;51.728;8.748;2023-03-11T12:49:36;5.63;;;1.13;;
34924;SDS011;21130;51.728;8.748;2023-03-11T12:52:05;5.75;;;1.45;;
34924;SDS011;21130;51.728;8.748;2023-03-11T12:54:43;5.88;;;1.33;;
34924;SDS011;21130;51.728;8.748;2023-03-11T12:57:21;3.42;;;1.25;;
34924;SDS011;21130;51.728;8.748;2023-03-11T13:00:02;3.97;;;1.63;;
34924;SDS011;21130;51.728;8.748;2023-03-11T13:05:43;3.45;;;1.15;;
34924;SDS011;21130;51.728;8.748;2023-03-11T13:08:19;5.63;;;1.13;;
34924;SDS011;21130;51.728;8.748;2023-03-11T13:10:48;2.00;;;1.00;;
34924;SDS011;21130;51.728;8.748;2023-03-11T13:22:00;2.47;;;1.35;;
34924;SDS011;21130;51.728;8.748;2023-03-11T13:24:39;4.05;;;1.30;;
34924;SDS011;21130;51.728;8.748;2023-03-11T13:27:18;4.03;;;1.58;;
34924;SDS011;21130;51.728;8.748;2023-03-11T13:29:56;3.75;;;1.10;;
34924;SDS011;21130;51.728;8.748;2023-03-11T13:32:34;1.75;;;1.02;;
34924;SDS011;21130;51.728;8.748;2023-03-11T13:35:20;6.03;;;1.30;;
34924;SDS011;21130;51.728;8.748;2023-03-11T13:38:04;3.45;;;1.27;;
34924;SDS011;21130;51.728;8.748;2023-03-11T13:40:42;5.22;;;1.15;;
34924;SDS011;21130;51.728;8.748;2023-03-11T13:43:10;3.85;;;1.30;;
34924;SDS011;21130;51.728;8.748;2023-03-11T13:45:44;3.78;;;1.13;;
34924;SDS011;21130;51.728;8.748;2023-03-11T13:48:17;3.63;;;1.45;;
34924;SDS011;21130;51.728;8.748;2023-03-11T13:50:47;5.57;;;1.25;;
34924;SDS011;21130;51.728;8.748;2023-03-11T13:53:16;3.45;;;1.27;;
34924;SDS011;21130;51.728;8.748;2023-03-11T13:55:46;4.38;;;1.25;;
34924;SDS011;21130;51.728;8.748;2023-03-11T13:58:14;2.90;;;1.45;;
34924;SDS011;21130;51.728;8.748;2023-03-11T14:00:48;4.95;;;1.10;;
34924;SDS011;21130;51.728;8.748;2023-03-11T14:03:17;4.13;;;1.45;;
34924;SDS011;21130;51.728;8.748;2023-03-11T14:05:47;3.22;;;1.30;;
34924;SDS011;21130;51.728;8.748;2023-03-11T14:08:17;3.85;;;1.23;;
34924;SDS011;21130;51.728;8.748;2023-03-11T14:10:50;2.88;;;1.20;;
34924;SDS011;21130;51.728;8.748;2023-03-11T14:13:17;6.15;;;2.90;;
34924;SDS011;21130;51.728;8.748;2023-03-11T14:15:46;3.15;;;1.38;;
34924;SDS011;21130;51.728;8.748;2023-03-11T14:18:29;3.55;;;1.75;;
34924;SDS011;21130;51.728;8.748;2023-03-11T14:20:59;4.35;;;1.38;;
34924;SDS011;21130;51.728;8.748;2023-03-11T14:23:28;3.85;;;1.13;;
34924;SDS011;21130;51.728;8.748;2023-03-11T14:26:02;4.25;;;1.17;;
34924;SDS011;21130;51.728;8.748;2023-03-11T14:28:32;4.25;;;1.30;;
34924;SDS011;21130;51.728;8.748;2023-03-11T14:31:03;1.40;;;1.10;;
34924;SDS011;21130;51.728;8.748;2023-03-11T14:33:30;3.03;;;1.17;;
34924;SDS011;21130;51.728;8.748;2023-03-11T14:35:57;2.50;;;1.35;;
34924;SDS011;21130;51.728;8.748;2023-03-11T14:38:26;5.22;;;1.35;;
34924;SDS011;21130;51.728;8.748;2023-03-11T14:40:55;3.53;;;1.25;;
34924;SDS011;21130;51.728;8.748;2023-03-11T14:43:23;3.38;;;1.15;;
34924;SDS011;21130;51.728;8.748;2023-03-11T14:45:50;1.58;;;1.00;;
34924;SDS011;21130;51.728;8.748;2023-03-11T14:48:20;3.92;;;1.40;;
34924;SDS011;21130;51.728;8.748;2023-03-11T14:50:51;2.42;;;1.13;;
34924;SDS011;21130;51.728;8.748;2023-03-11T14:53:23;3.70;;;1.10;;
34924;SDS011;21130;51.728;8.748;2023-03-11T14:55:55;2.47;;;0.90;;
34924;SDS011;21130;51.728;8.748;2023-03-11T14:58:25;3.15;;;0.93;;
34924;SDS011;21130;51.728;8.748;2023-03-11T15:00:57;4.35;;;1.10;;
34924;SDS011;21130;51.728;8.748;2023-03-11T15:03:31;4.28;;;1.20;;
34924;SDS011;21130;51.728;8.748;2023-03-11T15:05:59;6.53;;;1.10;;
34924;SDS011;21130;51.728;8.748;2023-03-11T15:08:29;1.60;;;0.80;;
34924;SDS011;21130;51.728;8.748;2023-03-11T15:11:00;1.40;;;0.80;;
34924;SDS011;21130;51.728;8.748;2023-03-11T15:13:32;1.63;;;1.00;;
34924;SDS011;21130;51.728;8.748;2023-03-11T15:15:59;5.15;;;0.90;;
34924;SDS011;21130;51.728;8.748;2023-03-11T15:18:28;3.33;;;1.10;;
34924;SDS011;21130;51.728;8.748;2023-03-11T15:21:02;1.45;;;0.88;;
34924;SDS011;21130;51.728;8.748;2023-03-11T15:23:31;2.00;;;1.00;;
34924;SDS011;21130;51.728;8.748;2023-03-11T15:26:00;3.17;;;0.95;;